sensor_id;sensor_type;location;lat;lon;timestamp;temperature;humidity
50804;DHT22;37205;51.434;6.756;2024-03-02T00:02:13;8.00;1.00
50804;DHT22;37205;51.434;6.756;2024-03-02T00:04:39;7.90;1.00
50804;DHT22;37205;51.434;6.756;2024-03-02T00:07:06;7.90;1.00
50804;DHT22;37205;51.434;6.756;2024-03-02T00:09:32;7.90;10.20
50804;DHT22;37205;51.434;6.756;2024-03-02T00:11:58;7.90;99.90
50804;DHT22;37205;51.434;6.756;2024-03-02T00:14:24;7.90;99.90
50804;DHT22;37205;51.434;6.756;2024-03-02T00:16:51;7.90;99.90
50804;DHT22;37205;51.434;6.756;2024-03-02T00:19:17;8.00;99.90
50804;DHT22;37205;51.434;6.756;2024-03-02T00:21:43;8.00;80.40
50804;DHT22;37205;51.434;6.756;2024-03-02T00:24:21;8.00;15.40
50804;DHT22;37205;51.434;6.756;2024-03-02T00:26:47;8.10;1.00
50804;DHT22;37205;51.434;6.756;2024-03-02T00:29:16;8.10;15.40
50804;DHT22;37205;51.434;6.756;2024-03-02T00:31:42;8.20;1.00
50804;DHT22;37205;51.434;6.756;2024-03-02T00:34:08;8.20;99.90
50804;DHT22;37205;51.434;6.756;2024-03-02T00:36:33;8.30;99.90
50804;DHT22;37205;51.434;6.756;2024-03-02T00:38:59;8.30;99.90
50804;DHT22;37205;51.434;6.756;2024-03-02T00:41:27;8.40;99.90
50804;DHT22;37205;51.434;6.756;2024-03-02T00:43:58;8.40;1.00
50804;DHT22;37205;51.434;6.756;2024-03-02T00:46:23;8.50;1.00
50804;DHT22;37205;51.434;6.756;2024-03-02T00:48:57;8.50;99.90
50804;DHT22;37205;51.434;6.756;2024-03-02T00:51:26;8.50;99.90
50804;DHT22;37205;51.434;6.756;2024-03-02T00:53:54;8.60;99.90
50804;DHT22;37205;51.434;6.756;2024-03-02T00:56:22;8.60;99.90
50804;DHT22;37205;51.434;6.756;2024-03-02T00:58:49;8.60;99.90
50804;DHT22;37205;51.434;6.756;2024-03-02T01:01:15;8.60;99.90
50804;DHT22;37205;51.434;6.756;2024-03-02T01:03:42;8.60;99.90
50804;DHT22;37205;51.434;6.756;2024-03-02T01:06:07;8.60;1.00
50804;DHT22;37205;51.434;6.756;2024-03-02T01:11:04;8.70;1.00
50804;DHT22;37205;51.434;6.756;2024-03-02T01:13:30;8.70;1.00
50804;DHT22;37205;51.434;6.756;2024-03-02T01:15:56;8.70;1.00
50804;DHT22;37205;51.434;6.756;2024-03-02T01:18:22;8.70;1.00
50804;DHT22;37205;51.434;6.756;2024-03-02T01:20:48;8.70;1.00
50804;DHT22;37205;51.434;6.756;2024-03-02T01:23:17;8.80;99.90
50804;DHT22;37205;51.434;6.756;2024-03-02T01:25:42;8.70;1.00
50804;DHT22;37205;51.434;6.756;2024-03-02T01:28:08;8.70;1.00
50804;DHT22;37205;51.434;6.756;2024-03-02T01:30:34;8.60;1.00
50804;DHT22;37205;51.434;6.756;2024-03-02T01:33:00;8.60;1.00
50804;DHT22;37205;51.434;6.756;2024-03-02T01:35:27;8.50;67.60
50804;DHT22;37205;51.434;6.756;2024-03-02T01:37:53;8.50;99.90
50804;DHT22;37205;51.434;6.756;2024-03-02T01:40:19;8.50;63.40
50804;DHT22;37205;51.434;6.756;2024-03-02T01:42:45;8.50;49.80
50804;DHT22;37205;51.434;6.756;2024-03-02T01:45:11;8.50;43.00
50804;DHT22;37205;51.434;6.756;2024-03-02T01:47:37;8.40;99.90
50804;DHT22;37205;51.434;6.756;2024-03-02T01:50:03;8.40;99.90
50804;DHT22;37205;51.434;6.756;2024-03-02T01:52:29;8.30;99.90
50804;DHT22;37205;51.434;6.756;2024-03-02T01:54:54;8.30;99.90
50804;DHT22;37205;51.434;6.756;2024-03-02T01:57:20;8.40;99.90
50804;DHT22;37205;51.434;6.756;2024-03-02T01:59:46;8.40;99.90
50804;DHT22;37205;51.434;6.756;2024-03-02T02:02:16;8.50;1.00
50804;DHT22;37205;51.434;6.756;2024-03-02T02:04:41;8.50;1.00
50804;DHT22;37205;51.434;6.756;2024-03-02T02:07:07;8.60;99.90
50804;DHT22;37205;51.434;6.756;2024-03-02T02:09:32;8.60;99.90
50804;DHT22;37205;51.434;6.756;2024-03-02T02:11:58;8.70;99.90
50804;DHT22;37205;51.434;6.756;2024-03-02T02:14:24;8.70;99.90
50804;DHT22;37205;51.434;6.756;2024-03-02T02:16:50;8.70;99.90
50804;DHT22;37205;51.434;6.756;2024-03-02T02:19:15;8.70;1.00
50804;DHT22;37205;51.434;6.756;2024-03-02T02:21:44;8.70;26.90
50804;DHT22;37205;51.434;6.756;2024-03-02T02:24:09;8.80;1.00
50804;DHT22;37205;51.434;6.756;2024-03-02T02:26:35;8.90;99.90
50804;DHT22;37205;51.434;6.756;2024-03-02T02:29:01;8.90;99.90
50804;DHT22;37205;51.434;6.756;2024-03-02T02:31:26;8.90;99.90
50804;DHT22;37205;51.434;6.756;2024-03-02T02:33:52;9.00;99.90
50804;DHT22;37205;51.434;6.756;2024-03-02T02:36:18;9.00;99.90
50804;DHT22;37205;51.434;6.756;2024-03-02T02:38:46;9.00;99.90
50804;DHT22;37205;51.434;6.756;2024-03-02T02:41:13;9.00;99.90
50804;DHT22;37205;51.434;6.756;2024-03-02T02:43:39;9.10;99.90
50804;DHT22;37205;51.434;6.756;2024-03-02T02:46:05;9.10;99.90
50804;DHT22;37205;51.434;6.756;2024-03-02T02:48:31;9.10;94.40
50804;DHT22;37205;51.434;6.756;2024-03-02T02:50:56;9.10;99.90
50804;DHT22;37205;51.434;6.756;2024-03-02T02:53:22;9.10;99.90
50804;DHT22;37205;51.434;6.756;2024-03-02T02:55:47;9.10;96.60
50804;DHT22;37205;51.434;6.756;2024-03-02T02:58:13;9.10;99.80
50804;DHT22;37205;51.434;6.756;2024-03-02T03:00:40;9.00;99.90
50804;DHT22;37205;51.434;6.756;2024-03-02T03:03:05;9.00;99.90
50804;DHT22;37205;51.434;6.756;2024-03-02T03:05:31;9.00;99.90
50804;DHT22;37205;51.434;6.756;2024-03-02T03:07:56;9.00;99.90
50804;DHT22;37205;51.434;6.756;2024-03-02T03:10:22;9.00;99.90
50804;DHT22;37205;51.434;6.756;2024-03-02T03:12:48;9.00;99.90
50804;DHT22;37205;51.434;6.756;2024-03-02T03:15:14;9.00;1.00
50804;DHT22;37205;51.434;6.756;2024-03-02T03:17:41;9.00;99.90
50804;DHT22;37205;51.434;6.756;2024-03-02T03:20:07;9.00;99.90
50804;DHT22;37205;51.434;6.756;2024-03-02T03:22:36;9.00;99.90
50804;DHT22;37205;51.434;6.756;2024-03-02T03:25:02;9.00;99.90
50804;DHT22;37205;51.434;6.756;2024-03-02T03:27:29;9.00;99.90
50804;DHT22;37205;51.434;6.756;2024-03-02T03:29:54;8.90;1.00
50804;DHT22;37205;51.434;6.756;2024-03-02T03:32:20;9.00;1.00
50804;DHT22;37205;51.434;6.756;2024-03-02T03:34:45;9.00;1.00
50804;DHT22;37205;51.434;6.756;2024-03-02T03:37:11;8.90;1.00
50804;DHT22;37205;51.434;6.756;2024-03-02T03:39:36;8.90;99.90
50804;DHT22;37205;51.434;6.756;2024-03-02T03:42:02;8.90;1.00
50804;DHT22;37205;51.434;6.756;2024-03-02T03:44:28;8.90;99.90
50804;DHT22;37205;51.434;6.756;2024-03-02T03:46:54;8.80;1.00
50804;DHT22;37205;51.434;6.756;2024-03-02T03:49:19;8.90;1.00
50804;DHT22;37205;51.434;6.756;2024-03-02T03:51:45;8.90;1.00
50804;DHT22;37205;51.434;6.756;2024-03-02T03:54:10;8.80;1.00
50804;DHT22;37205;51.434;6.756;2024-03-02T03:56:37;8.90;1.00
50804;DHT22;37205;51.434;6.756;2024-03-02T03:59:02;8.80;97.60
50804;DHT22;37205;51.434;6.756;2024-03-02T04:01:28;8.80;99.90
50804;DHT22;37205;51.434;6.756;2024-03-02T04:03:53;8.80;99.90
50804;DHT22;37205;51.434;6.756;2024-03-02T04:06:19;8.80;99.90
50804;DHT22;37205;51.434;6.756;2024-03-02T04:08:44;8.70;99.90
50804;DHT22;37205;51.434;6.756;2024-03-02T04:11:10;8.70;1.00
50804;DHT22;37205;51.434;6.756;2024-03-02T04:13:36;8.60;1.00
50804;DHT22;37205;51.434;6.756;2024-03-02T04:16:01;8.60;54.70
50804;DHT22;37205;51.434;6.756;2024-03-02T04:18:29;8.50;99.90
50804;DHT22;37205;51.434;6.756;2024-03-02T04:20:54;8.40;99.90
50804;DHT22;37205;51.434;6.756;2024-03-02T04:23:20;8.50;99.90
50804;DHT22;37205;51.434;6.756;2024-03-02T04:25:45;8.40;99.90
50804;DHT22;37205;51.434;6.756;2024-03-02T04:28:11;8.40;99.90
50804;DHT22;37205;51.434;6.756;2024-03-02T04:30:37;8.30;99.90
50804;DHT22;37205;51.434;6.756;2024-03-02T04:33:03;8.30;1.00
50804;DHT22;37205;51.434;6.756;2024-03-02T04:35:29;8.20;92.50
50804;DHT22;37205;51.434;6.756;2024-03-02T04:37:55;8.20;99.90
50804;DHT22;37205;51.434;6.756;2024-03-02T04:40:20;8.20;99.90
50804;DHT22;37205;51.434;6.756;2024-03-02T04:42:45;8.20;1.00
50804;DHT22;37205;51.434;6.756;2024-03-02T04:45:11;8.30;99.90
50804;DHT22;37205;51.434;6.756;2024-03-02T04:47:36;8.30;99.90
50804;DHT22;37205;51.434;6.756;2024-03-02T04:50:02;8.30;99.90
50804;DHT22;37205;51.434;6.756;2024-03-02T04:52:28;8.30;99.90
50804;DHT22;37205;51.434;6.756;2024-03-02T04:54:53;8.30;99.90
50804;DHT22;37205;51.434;6.756;2024-03-02T04:57:37;8.20;99.90
50804;DHT22;37205;51.434;6.756;2024-03-02T05:00:03;8.20;99.90
50804;DHT22;37205;51.434;6.756;2024-03-02T05:02:32;8.20;99.90
50804;DHT22;37205;51.434;6.756;2024-03-02T05:04:57;8.20;99.90
50804;DHT22;37205;51.434;6.756;2024-03-02T05:07:23;8.20;99.90
50804;DHT22;37205;51.434;6.756;2024-03-02T05:09:48;8.10;99.90
50804;DHT22;37205;51.434;6.756;2024-03-02T05:12:14;8.10;99.90
50804;DHT22;37205;51.434;6.756;2024-03-02T05:14:43;8.00;99.90
50804;DHT22;37205;51.434;6.756;2024-03-02T05:17:08;8.00;99.90
50804;DHT22;37205;51.434;6.756;2024-03-02T05:19:34;8.00;1.00
50804;DHT22;37205;51.434;6.756;2024-03-02T05:21:59;7.90;1.00
50804;DHT22;37205;51.434;6.756;2024-03-02T05:24:25;7.80;75.10
50804;DHT22;37205;51.434;6.756;2024-03-02T05:26:53;7.80;99.90
50804;DHT22;37205;51.434;6.756;2024-03-02T05:29:18;7.80;99.90
50804;DHT22;37205;51.434;6.756;2024-03-02T05:31:44;7.70;99.90
50804;DHT22;37205;51.434;6.756;2024-03-02T05:34:10;7.70;99.90
50804;DHT22;37205;51.434;6.756;2024-03-02T05:36:35;7.70;1.00
50804;DHT22;37205;51.434;6.756;2024-03-02T05:39:01;7.60;1.00
50804;DHT22;37205;51.434;6.756;2024-03-02T05:41:27;7.60;99.90
50804;DHT22;37205;51.434;6.756;2024-03-02T05:43:52;7.60;99.90
50804;DHT22;37205;51.434;6.756;2024-03-02T05:46:18;7.60;99.90
50804;DHT22;37205;51.434;6.756;2024-03-02T05:48:43;7.60;99.90
50804;DHT22;37205;51.434;6.756;2024-03-02T05:51:09;7.60;99.90
50804;DHT22;37205;51.434;6.756;2024-03-02T05:53:34;7.60;99.90
50804;DHT22;37205;51.434;6.756;2024-03-02T05:56:03;7.60;99.90
50804;DHT22;37205;51.434;6.756;2024-03-02T05:58:30;7.60;99.90
50804;DHT22;37205;51.434;6.756;2024-03-02T06:01:11;7.70;99.90
50804;DHT22;37205;51.434;6.756;2024-03-02T06:03:37;7.70;1.00
50804;DHT22;37205;51.434;6.756;2024-03-02T06:06:02;7.70;1.00
50804;DHT22;37205;51.434;6.756;2024-03-02T06:08:28;7.70;1.00
50804;DHT22;37205;51.434;6.756;2024-03-02T06:10:54;7.60;1.00
50804;DHT22;37205;51.434;6.756;2024-03-02T06:13:19;7.60;16.60
50804;DHT22;37205;51.434;6.756;2024-03-02T06:15:45;7.50;1.00
50804;DHT22;37205;51.434;6.756;2024-03-02T06:18:10;7.50;1.00
50804;DHT22;37205;51.434;6.756;2024-03-02T06:20:36;7.50;80.00
50804;DHT22;37205;51.434;6.756;2024-03-02T06:23:02;7.50;99.90
50804;DHT22;37205;51.434;6.756;2024-03-02T06:25:28;7.50;99.90
50804;DHT22;37205;51.434;6.756;2024-03-02T06:27:53;7.50;99.90
50804;DHT22;37205;51.434;6.756;2024-03-02T06:30:19;7.40;99.90
50804;DHT22;37205;51.434;6.756;2024-03-02T06:32:44;7.40;1.00
50804;DHT22;37205;51.434;6.756;2024-03-02T06:35:10;7.40;1.00
50804;DHT22;37205;51.434;6.756;2024-03-02T06:37:36;7.30;15.60
50804;DHT22;37205;51.434;6.756;2024-03-02T06:40:02;7.30;99.90
50804;DHT22;37205;51.434;6.756;2024-03-02T06:42:27;7.20;1.00
50804;DHT22;37205;51.434;6.756;2024-03-02T06:44:58;7.20;1.00
50804;DHT22;37205;51.434;6.756;2024-03-02T06:47:24;7.10;99.90
50804;DHT22;37205;51.434;6.756;2024-03-02T06:49:49;7.10;99.90
50804;DHT22;37205;51.434;6.756;2024-03-02T06:52:15;7.10;99.90
50804;DHT22;37205;51.434;6.756;2024-03-02T06:54:40;7.20;99.90
50804;DHT22;37205;51.434;6.756;2024-03-02T06:57:06;7.20;99.90
50804;DHT22;37205;51.434;6.756;2024-03-02T06:59:31;7.20;99.90
50804;DHT22;37205;51.434;6.756;2024-03-02T07:01:58;7.30;99.90
50804;DHT22;37205;51.434;6.756;2024-03-02T07:04:24;7.30;99.90
50804;DHT22;37205;51.434;6.756;2024-03-02T07:06:50;7.40;1.00
50804;DHT22;37205;51.434;6.756;2024-03-02T07:09:16;7.50;99.90
50804;DHT22;37205;51.434;6.756;2024-03-02T07:11:42;7.60;82.20
50804;DHT22;37205;51.434;6.756;2024-03-02T07:14:07;7.70;1.00
50804;DHT22;37205;51.434;6.756;2024-03-02T07:16:33;7.70;99.90
50804;DHT22;37205;51.434;6.756;2024-03-02T07:19:00;7.80;1.00
50804;DHT22;37205;51.434;6.756;2024-03-02T07:21:27;7.90;99.90
50804;DHT22;37205;51.434;6.756;2024-03-02T07:23:52;8.00;99.90
50804;DHT22;37205;51.434;6.756;2024-03-02T07:26:18;8.10;21.60
50804;DHT22;37205;51.434;6.756;2024-03-02T07:28:47;8.10;1.00
50804;DHT22;37205;51.434;6.756;2024-03-02T07:31:13;8.10;99.90
50804;DHT22;37205;51.434;6.756;2024-03-02T07:33:39;8.10;99.90
50804;DHT22;37205;51.434;6.756;2024-03-02T07:36:05;8.10;99.90
50804;DHT22;37205;51.434;6.756;2024-03-02T07:38:30;8.20;21.30
50804;DHT22;37205;51.434;6.756;2024-03-02T07:40:57;8.20;99.90
50804;DHT22;37205;51.434;6.756;2024-03-02T07:43:23;8.20;1.00
50804;DHT22;37205;51.434;6.756;2024-03-02T07:45:48;8.20;1.00
50804;DHT22;37205;51.434;6.756;2024-03-02T07:48:14;8.20;1.00
50804;DHT22;37205;51.434;6.756;2024-03-02T07:50:40;8.30;90.90
50804;DHT22;37205;51.434;6.756;2024-03-02T07:53:06;8.30;1.00
50804;DHT22;37205;51.434;6.756;2024-03-02T07:55:33;8.40;99.90
50804;DHT22;37205;51.434;6.756;2024-03-02T07:57:58;8.40;99.90
50804;DHT22;37205;51.434;6.756;2024-03-02T08:00:24;8.50;70.00
50804;DHT22;37205;51.434;6.756;2024-03-02T08:02:51;8.60;99.90
50804;DHT22;37205;51.434;6.756;2024-03-02T08:05:17;8.60;1.00
50804;DHT22;37205;51.434;6.756;2024-03-02T08:07:45;8.60;1.00
50804;DHT22;37205;51.434;6.756;2024-03-02T08:10:10;8.50;1.00
50804;DHT22;37205;51.434;6.756;2024-03-02T08:12:36;8.50;1.00
50804;DHT22;37205;51.434;6.756;2024-03-02T08:15:01;8.50;99.90
50804;DHT22;37205;51.434;6.756;2024-03-02T08:17:27;8.50;99.90
50804;DHT22;37205;51.434;6.756;2024-03-02T08:19:53;8.50;99.90
50804;DHT22;37205;51.434;6.756;2024-03-02T08:22:19;8.50;99.90
50804;DHT22;37205;51.434;6.756;2024-03-02T08:24:44;8.50;99.90
50804;DHT22;37205;51.434;6.756;2024-03-02T08:27:10;8.60;99.90
50804;DHT22;37205;51.434;6.756;2024-03-02T08:29:36;8.60;99.90
50804;DHT22;37205;51.434;6.756;2024-03-02T08:32:01;8.70;99.90
50804;DHT22;37205;51.434;6.756;2024-03-02T08:34:27;8.70;14.80
50804;DHT22;37205;51.434;6.756;2024-03-02T08:36:53;8.80;1.00
50804;DHT22;37205;51.434;6.756;2024-03-02T08:39:19;8.80;1.00
50804;DHT22;37205;51.434;6.756;2024-03-02T08:41:45;8.80;30.00
50804;DHT22;37205;51.434;6.756;2024-03-02T08:44:12;8.90;1.00
50804;DHT22;37205;51.434;6.756;2024-03-02T08:46:38;9.00;1.00
50804;DHT22;37205;51.434;6.756;2024-03-02T08:49:04;9.20;1.00
50804;DHT22;37205;51.434;6.756;2024-03-02T08:51:30;9.30;1.00
50804;DHT22;37205;51.434;6.756;2024-03-02T08:53:56;9.40;99.90
50804;DHT22;37205;51.434;6.756;2024-03-02T08:56:21;9.50;30.40
50804;DHT22;37205;51.434;6.756;2024-03-02T08:58:49;9.60;46.80
50804;DHT22;37205;51.434;6.756;2024-03-02T09:01:14;9.60;1.00
50804;DHT22;37205;51.434;6.756;2024-03-02T09:03:41;9.80;99.90
50804;DHT22;37205;51.434;6.756;2024-03-02T09:06:10;9.90;99.90
50804;DHT22;37205;51.434;6.756;2024-03-02T09:08:35;10.00;99.90
50804;DHT22;37205;51.434;6.756;2024-03-02T09:11:02;10.00;99.90
50804;DHT22;37205;51.434;6.756;2024-03-02T09:13:28;10.10;1.00
50804;DHT22;37205;51.434;6.756;2024-03-02T09:15:54;10.10;50.00
50804;DHT22;37205;51.434;6.756;2024-03-02T09:18:20;10.20;99.90
50804;DHT22;37205;51.434;6.756;2024-03-02T09:20:45;10.30;1.00
50804;DHT22;37205;51.434;6.756;2024-03-02T09:23:11;10.30;1.00
50804;DHT22;37205;51.434;6.756;2024-03-02T09:25:37;10.30;57.90
50804;DHT22;37205;51.434;6.756;2024-03-02T09:28:02;10.40;1.00
50804;DHT22;37205;51.434;6.756;2024-03-02T09:30:28;10.50;99.90
50804;DHT22;37205;51.434;6.756;2024-03-02T09:32:54;10.50;99.90
50804;DHT22;37205;51.434;6.756;2024-03-02T09:35:20;10.60;1.00
50804;DHT22;37205;51.434;6.756;2024-03-02T09:37:45;10.70;1.00
50804;DHT22;37205;51.434;6.756;2024-03-02T09:40:12;10.70;99.90
50804;DHT22;37205;51.434;6.756;2024-03-02T09:42:38;10.70;93.40
50804;DHT22;37205;51.434;6.756;2024-03-02T09:45:05;10.60;99.90
50804;DHT22;37205;51.434;6.756;2024-03-02T09:47:31;10.60;32.90
50804;DHT22;37205;51.434;6.756;2024-03-02T09:49:57;10.70;1.00
50804;DHT22;37205;51.434;6.756;2024-03-02T09:52:23;10.70;1.00
50804;DHT22;37205;51.434;6.756;2024-03-02T09:54:49;10.60;1.00
50804;DHT22;37205;51.434;6.756;2024-03-02T09:57:15;10.60;1.00
50804;DHT22;37205;51.434;6.756;2024-03-02T09:59:40;10.60;1.00
50804;DHT22;37205;51.434;6.756;2024-03-02T10:02:06;10.60;99.90
50804;DHT22;37205;51.434;6.756;2024-03-02T10:04:32;10.70;99.90
50804;DHT22;37205;51.434;6.756;2024-03-02T10:07:14;10.70;99.90
50804;DHT22;37205;51.434;6.756;2024-03-02T10:09:49;10.80;99.90
50804;DHT22;37205;51.434;6.756;2024-03-02T10:12:16;10.80;99.90
50804;DHT22;37205;51.434;6.756;2024-03-02T10:14:42;10.90;99.90
50804;DHT22;37205;51.434;6.756;2024-03-02T10:17:10;11.00;99.90
50804;DHT22;37205;51.434;6.756;2024-03-02T10:19:36;11.00;99.90
50804;DHT22;37205;51.434;6.756;2024-03-02T10:22:03;11.10;99.90
50804;DHT22;37205;51.434;6.756;2024-03-02T10:24:39;11.30;99.90
50804;DHT22;37205;51.434;6.756;2024-03-02T10:27:09;11.30;1.00
50804;DHT22;37205;51.434;6.756;2024-03-02T10:29:39;11.30;1.00
50804;DHT22;37205;51.434;6.756;2024-03-02T10:32:05;11.40;1.00
50804;DHT22;37205;51.434;6.756;2024-03-02T10:34:32;11.40;1.00
50804;DHT22;37205;51.434;6.756;2024-03-02T10:36:58;11.40;1.00
50804;DHT22;37205;51.434;6.756;2024-03-02T10:39:24;11.40;1.00
50804;DHT22;37205;51.434;6.756;2024-03-02T10:41:52;11.40;1.00
50804;DHT22;37205;51.434;6.756;2024-03-02T10:44:19;11.40;1.00
50804;DHT22;37205;51.434;6.756;2024-03-02T10:46:45;11.40;1.00
50804;DHT22;37205;51.434;6.756;2024-03-02T10:49:11;11.40;1.00
50804;DHT22;37205;51.434;6.756;2024-03-02T10:51:36;11.50;1.00
50804;DHT22;37205;51.434;6.756;2024-03-02T10:54:03;11.50;1.00
50804;DHT22;37205;51.434;6.756;2024-03-02T10:56:33;11.50;1.00
50804;DHT22;37205;51.434;6.756;2024-03-02T10:59:14;11.60;1.00
50804;DHT22;37205;51.434;6.756;2024-03-02T11:01:43;11.60;1.00
50804;DHT22;37205;51.434;6.756;2024-03-02T11:04:09;11.60;1.00
50804;DHT22;37205;51.434;6.756;2024-03-02T11:06:38;11.60;1.00
50804;DHT22;37205;51.434;6.756;2024-03-02T11:09:07;11.70;1.00
50804;DHT22;37205;51.434;6.756;2024-03-02T11:11:43;11.70;1.00
50804;DHT22;37205;51.434;6.756;2024-03-02T11:14:14;11.80;1.00
50804;DHT22;37205;51.434;6.756;2024-03-02T11:16:42;11.80;1.00
50804;DHT22;37205;51.434;6.756;2024-03-02T11:19:15;11.80;1.00
50804;DHT22;37205;51.434;6.756;2024-03-02T11:21:41;11.80;1.00
50804;DHT22;37205;51.434;6.756;2024-03-02T11:24:34;11.80;1.00
50804;DHT22;37205;51.434;6.756;2024-03-02T11:27:01;11.80;1.00
50804;DHT22;37205;51.434;6.756;2024-03-02T11:32:14;12.00;1.00
50804;DHT22;37205;51.434;6.756;2024-03-02T11:34:42;12.00;99.90
50804;DHT22;37205;51.434;6.756;2024-03-02T11:37:13;12.00;99.90
50804;DHT22;37205;51.434;6.756;2024-03-02T11:39:44;12.10;99.90
50804;DHT22;37205;51.434;6.756;2024-03-02T11:42:11;12.10;99.90
50804;DHT22;37205;51.434;6.756;2024-03-02T11:44:39;12.20;1.00
50804;DHT22;37205;51.434;6.756;2024-03-02T11:47:07;12.20;99.90
50804;DHT22;37205;51.434;6.756;2024-03-02T11:49:49;12.20;99.90
50804;DHT22;37205;51.434;6.756;2024-03-02T11:52:15;12.20;99.90
50804;DHT22;37205;51.434;6.756;2024-03-02T11:54:44;12.30;99.90
50804;DHT22;37205;51.434;6.756;2024-03-02T11:57:17;12.20;99.90
50804;DHT22;37205;51.434;6.756;2024-03-02T11:59:43;12.40;99.90
50804;DHT22;37205;51.434;6.756;2024-03-02T12:02:20;12.40;99.90
50804;DHT22;37205;51.434;6.756;2024-03-02T12:04:47;12.40;99.90
50804;DHT22;37205;51.434;6.756;2024-03-02T12:07:20;12.50;99.90
50804;DHT22;37205;51.434;6.756;2024-03-02T12:09:59;12.50;99.90
50804;DHT22;37205;51.434;6.756;2024-03-02T12:12:25;12.50;99.90
50804;DHT22;37205;51.434;6.756;2024-03-02T12:14:52;12.60;99.90
50804;DHT22;37205;51.434;6.756;2024-03-02T12:17:20;12.80;99.90
50804;DHT22;37205;51.434;6.756;2024-03-02T12:19:46;12.90;1.00
50804;DHT22;37205;51.434;6.756;2024-03-02T12:22:11;13.00;99.90
50804;DHT22;37205;51.434;6.756;2024-03-02T12:24:37;13.00;99.90
50804;DHT22;37205;51.434;6.756;2024-03-02T12:27:04;13.10;99.90
50804;DHT22;37205;51.434;6.756;2024-03-02T12:29:30;13.20;99.90
50804;DHT22;37205;51.434;6.756;2024-03-02T12:31:55;13.30;99.90
50804;DHT22;37205;51.434;6.756;2024-03-02T12:34:22;13.30;99.90
50804;DHT22;37205;51.434;6.756;2024-03-02T12:36:48;13.50;99.90
50804;DHT22;37205;51.434;6.756;2024-03-02T12:39:21;13.60;99.90
50804;DHT22;37205;51.434;6.756;2024-03-02T12:41:50;13.60;99.90
50804;DHT22;37205;51.434;6.756;2024-03-02T12:44:17;13.80;99.90
50804;DHT22;37205;51.434;6.756;2024-03-02T12:46:43;13.90;99.90
50804;DHT22;37205;51.434;6.756;2024-03-02T12:49:11;13.90;99.90
50804;DHT22;37205;51.434;6.756;2024-03-02T12:51:37;13.90;99.90
50804;DHT22;37205;51.434;6.756;2024-03-02T12:54:03;14.00;99.90
50804;DHT22;37205;51.434;6.756;2024-03-02T12:56:30;14.00;99.90
50804;DHT22;37205;51.434;6.756;2024-03-02T12:58:56;14.10;99.90
50804;DHT22;37205;51.434;6.756;2024-03-02T13:01:23;14.10;99.90
50804;DHT22;37205;51.434;6.756;2024-03-02T13:03:49;14.20;99.90
50804;DHT22;37205;51.434;6.756;2024-03-02T13:06:16;14.30;99.90
50804;DHT22;37205;51.434;6.756;2024-03-02T13:08:42;14.30;99.90
50804;DHT22;37205;51.434;6.756;2024-03-02T13:11:07;14.30;99.90
50804;DHT22;37205;51.434;6.756;2024-03-02T13:13:33;14.40;99.90
50804;DHT22;37205;51.434;6.756;2024-03-02T13:16:00;14.40;99.90
50804;DHT22;37205;51.434;6.756;2024-03-02T13:18:26;14.50;99.90
50804;DHT22;37205;51.434;6.756;2024-03-02T13:20:52;14.60;99.90
50804;DHT22;37205;51.434;6.756;2024-03-02T13:23:18;14.70;99.90
50804;DHT22;37205;51.434;6.756;2024-03-02T13:25:45;14.70;99.90
50804;DHT22;37205;51.434;6.756;2024-03-02T13:28:12;14.80;99.90
50804;DHT22;37205;51.434;6.756;2024-03-02T13:30:38;14.80;99.90
50804;DHT22;37205;51.434;6.756;2024-03-02T13:33:04;14.90;99.90
50804;DHT22;37205;51.434;6.756;2024-03-02T13:35:29;14.90;99.90
50804;DHT22;37205;51.434;6.756;2024-03-02T13:37:55;14.90;99.90
50804;DHT22;37205;51.434;6.756;2024-03-02T13:40:21;14.90;99.90
50804;DHT22;37205;51.434;6.756;2024-03-02T13:42:46;14.80;99.90
50804;DHT22;37205;51.434;6.756;2024-03-02T13:45:13;14.70;99.90
50804;DHT22;37205;51.434;6.756;2024-03-02T13:47:39;14.60;99.90
50804;DHT22;37205;51.434;6.756;2024-03-02T13:50:04;14.60;99.90
50804;DHT22;37205;51.434;6.756;2024-03-02T13:52:31;14.60;99.90
50804;DHT22;37205;51.434;6.756;2024-03-02T13:54:57;14.60;99.90
50804;DHT22;37205;51.434;6.756;2024-03-02T13:57:22;14.60;99.90
50804;DHT22;37205;51.434;6.756;2024-03-02T13:59:48;14.60;99.90
50804;DHT22;37205;51.434;6.756;2024-03-02T14:02:15;14.60;99.90
50804;DHT22;37205;51.434;6.756;2024-03-02T14:04:40;14.60;99.90
50804;DHT22;37205;51.434;6.756;2024-03-02T14:07:06;14.50;99.90
50804;DHT22;37205;51.434;6.756;2024-03-02T14:09:32;14.50;99.90
50804;DHT22;37205;51.434;6.756;2024-03-02T14:11:58;14.50;99.90
50804;DHT22;37205;51.434;6.756;2024-03-02T14:14:26;14.40;99.90
50804;DHT22;37205;51.434;6.756;2024-03-02T14:16:53;14.50;99.90
50804;DHT22;37205;51.434;6.756;2024-03-02T14:19:19;14.40;99.90
50804;DHT22;37205;51.434;6.756;2024-03-02T14:21:46;14.40;99.90
50804;DHT22;37205;51.434;6.756;2024-03-02T14:24:13;14.40;99.90
50804;DHT22;37205;51.434;6.756;2024-03-02T14:26:38;14.40;99.90
50804;DHT22;37205;51.434;6.756;2024-03-02T14:29:04;14.40;99.90
50804;DHT22;37205;51.434;6.756;2024-03-02T14:31:30;14.40;99.90
50804;DHT22;37205;51.434;6.756;2024-03-02T14:33:59;14.40;99.90
50804;DHT22;37205;51.434;6.756;2024-03-02T14:36:26;14.50;99.90
50804;DHT22;37205;51.434;6.756;2024-03-02T14:38:53;14.50;99.90
50804;DHT22;37205;51.434;6.756;2024-03-02T14:41:18;14.60;99.90
50804;DHT22;37205;51.434;6.756;2024-03-02T14:43:44;14.60;99.90
50804;DHT22;37205;51.434;6.756;2024-03-02T14:46:10;14.60;99.90
50804;DHT22;37205;51.434;6.756;2024-03-02T14:48:37;14.60;99.90
50804;DHT22;37205;51.434;6.756;2024-03-02T14:51:02;14.60;99.90
50804;DHT22;37205;51.434;6.756;2024-03-02T14:53:28;14.60;99.90
50804;DHT22;37205;51.434;6.756;2024-03-02T14:55:54;14.50;99.90
50804;DHT22;37205;51.434;6.756;2024-03-02T14:58:20;14.50;99.90
50804;DHT22;37205;51.434;6.756;2024-03-02T15:00:46;14.50;99.90
50804;DHT22;37205;51.434;6.756;2024-03-02T15:03:11;14.50;99.90
50804;DHT22;37205;51.434;6.756;2024-03-02T15:05:37;14.50;99.90
50804;DHT22;37205;51.434;6.756;2024-03-02T15:08:04;14.50;99.90
50804;DHT22;37205;51.434;6.756;2024-03-02T15:10:30;14.50;99.90
50804;DHT22;37205;51.434;6.756;2024-03-02T15:12:56;14.50;99.90
50804;DHT22;37205;51.434;6.756;2024-03-02T15:15:22;14.60;99.90
50804;DHT22;37205;51.434;6.756;2024-03-02T15:17:48;14.60;99.90
50804;DHT22;37205;51.434;6.756;2024-03-02T15:20:13;14.70;99.90
50804;DHT22;37205;51.434;6.756;2024-03-02T15:22:39;14.70;99.90
50804;DHT22;37205;51.434;6.756;2024-03-02T15:25:05;14.70;99.90
50804;DHT22;37205;51.434;6.756;2024-03-02T15:27:31;14.70;99.90
50804;DHT22;37205;51.434;6.756;2024-03-02T15:29:56;14.80;99.90
50804;DHT22;37205;51.434;6.756;2024-03-02T15:32:23;14.80;99.90
50804;DHT22;37205;51.434;6.756;2024-03-02T15:34:48;14.80;99.90
50804;DHT22;37205;51.434;6.756;2024-03-02T15:37:14;14.80;99.90
50804;DHT22;37205;51.434;6.756;2024-03-02T15:39:39;14.80;99.90
50804;DHT22;37205;51.434;6.756;2024-03-02T15:42:05;14.80;99.90
50804;DHT22;37205;51.434;6.756;2024-03-02T15:44:31;14.90;99.90
50804;DHT22;37205;51.434;6.756;2024-03-02T15:46:58;14.80;99.90